Time;durP1;ratioP1;P1;durP2;ratioP2;P2;SDS_P1;SDS_P2;PMS_P1;PMS_P2;Temp;Humidity;BMP_temperature;BMP_pressure;BME280_temperature;BME280_humidity;BME280_pressure;Samples;Min_cycle;Max_cycle;Signal;HPM_P1;HPM_P2
2023/10/03 00:00:53;;;;;;;28.80;16.60;;;;;;;;;;5088142;28;20028;-66
2023/10/03 00:03:19;;;;;;;28.13;16.67;;;;;;;;;;5072818;28;20131;-66
2023/10/03 00:05:46;;;;;;;30.75;16.10;;;;;;;;;;5073798;28;20104;-66
2023/10/03 00:08:11;;;;;;;27.80;15.50;;;;;;;;;;5073966;28;20047;-66
2023/10/03 00:10:38;;;;;;;30.37;16.07;;;;;;;;;;5074328;28;20020;-66
2023/10/03 00:13:07;;;;;;;27.42;15.52;;;;;;;;;;5073727;28;20278;-66
2023/10/03 00:15:32;;;;;;;29.10;15.70;;;;;;;;;;5073265;28;20730;-66
2023/10/03 00:17:58;;;;;;;28.75;14.65;;;;;;;;;;5071855;28;20042;-66
2023/10/03 00:20:23;;;;;;;31.27;15.55;;;;;;;;;;5076251;28;20016;-65
2023/10/03 00:22:49;;;;;;;27.85;14.98;;;;;;;;;;5092450;28;20077;-65
2023/10/03 00:25:36;;;;;;;31.58;15.20;;;;;;;;;;5075326;28;20028;-66
2023/10/03 00:28:00;;;;;;;28.17;15.55;;;;;;;;;;5075680;28;20057;-66
2023/10/03 00:30:26;;;;;;;28.45;15.38;;;;;;;;;;5081901;28;20044;-66
2023/10/03 00:32:57;;;;;;;26.95;15.35;;;;;;;;;;5073622;28;20028;-67
2023/10/03 00:35:22;;;;;;;29.55;15.25;;;;;;;;;;5072464;28;20028;-68
2023/10/03 00:37:51;;;;;;;28.00;13.90;;;;;;;;;;5073896;28;20016;-66
2023/10/03 00:42:49;;;;;;;27.90;15.57;;;;;;;;;;5091079;28;20028;-67
2023/10/03 00:45:25;;;;;;;25.20;13.80;;;;;;;;;;5091729;28;20173;-66
2023/10/03 00:47:58;;;;;;;24.83;14.20;;;;;;;;;;5086005;28;20016;-66
2023/10/03 00:50:25;;;;;;;23.67;12.33;;;;;;;;;;5079280;28;20059;-66
2023/10/03 00:52:55;;;;;;;22.98;12.80;;;;;;;;;;5091982;28;20020;-66
2023/10/03 00:55:30;;;;;;;22.35;14.00;;;;;;;;;;5092650;28;20103;-67
2023/10/03 00:58:17;;;;;;;30.35;13.52;;;;;;;;;;5092332;28;20119;-66
2023/10/03 01:00:49;;;;;;;23.38;13.05;;;;;;;;;;5091757;28;20016;-66
2023/10/03 01:03:30;;;;;;;25.30;13.07;;;;;;;;;;5082431;28;20049;-67
2023/10/03 01:05:58;;;;;;;26.08;12.82;;;;;;;;;;5052045;28;20295;-66
2023/10/03 01:08:23;;;;;;;24.23;12.32;;;;;;;;;;5037499;28;20031;-66
2023/10/03 01:10:49;;;;;;;24.13;13.30;;;;;;;;;;5039768;28;20064;-67
2023/10/03 01:13:14;;;;;;;26.40;13.40;;;;;;;;;;5038057;28;20028;-67
2023/10/03 01:15:40;;;;;;;26.88;13.50;;;;;;;;;;5035095;28;20933;-66
2023/10/03 01:18:09;;;;;;;25.40;13.05;;;;;;;;;;5080851;28;20093;-67
2023/10/03 01:20:40;;;;;;;22.48;11.73;;;;;;;;;;5084248;28;20024;-67
2023/10/03 01:23:14;;;;;;;23.33;12.05;;;;;;;;;;5073889;28;20058;-67
2023/10/03 01:25:42;;;;;;;21.15;12.48;;;;;;;;;;5090721;28;20020;-67
2023/10/03 01:28:08;;;;;;;22.13;12.15;;;;;;;;;;5089970;28;20024;-68
2023/10/03 01:30:36;;;;;;;25.30;13.63;;;;;;;;;;5091879;28;20012;-67
2023/10/03 01:33:02;;;;;;;24.10;12.15;;;;;;;;;;5090050;28;20031;-67
2023/10/03 01:35:27;;;;;;;21.65;11.50;;;;;;;;;;5092279;28;20032;-67
2023/10/03 01:37:52;;;;;;;20.77;11.63;;;;;;;;;;5077518;28;20376;-67
2023/10/03 01:40:17;;;;;;;22.50;12.13;;;;;;;;;;5083760;28;20467;-67
2023/10/03 01:42:46;;;;;;;22.38;11.45;;;;;;;;;;5083130;28;20019;-67
2023/10/03 01:45:17;;;;;;;21.77;11.40;;;;;;;;;;5079636;28;20364;-66
2023/10/03 01:47:46;;;;;;;20.35;11.30;;;;;;;;;;5082333;28;20427;-67
2023/10/03 01:50:12;;;;;;;19.20;11.35;;;;;;;;;;5090163;28;20079;-66
2023/10/03 01:52:40;;;;;;;20.63;10.82;;;;;;;;;;5090608;28;20031;-66
2023/10/03 01:55:05;;;;;;;20.45;11.20;;;;;;;;;;5092219;28;20012;-67
2023/10/03 01:57:33;;;;;;;19.70;11.07;;;;;;;;;;5088150;28;20425;-66
2023/10/03 01:59:59;;;;;;;22.55;11.20;;;;;;;;;;5071880;28;20016;-66
2023/10/03 02:02:24;;;;;;;22.17;10.55;;;;;;;;;;5075090;28;20054;-65
2023/10/03 02:04:50;;;;;;;19.38;10.95;;;;;;;;;;5081239;28;20050;-67
2023/10/03 02:07:16;;;;;;;18.48;10.98;;;;;;;;;;5075499;28;20083;-66
2023/10/03 02:09:41;;;;;;;21.52;11.27;;;;;;;;;;5070479;28;20024;-66
2023/10/03 02:12:06;;;;;;;23.30;11.47;;;;;;;;;;5050111;28;20585;-67
2023/10/03 02:14:32;;;;;;;22.55;11.38;;;;;;;;;;5040310;28;20305;-66
2023/10/03 02:16:57;;;;;;;19.30;10.70;;;;;;;;;;5085341;28;20032;-66
2023/10/03 02:19:23;;;;;;;21.23;11.40;;;;;;;;;;5091536;28;20039;-66
2023/10/03 02:21:48;;;;;;;18.10;10.33;;;;;;;;;;5090330;28;20383;-66
2023/10/03 02:24:13;;;;;;;18.90;10.70;;;;;;;;;;5085839;28;20336;-66
2023/10/03 02:26:41;;;;;;;21.00;10.50;;;;;;;;;;5074382;28;20275;-66
2023/10/03 02:29:06;;;;;;;16.45;9.60;;;;;;;;;;5080122;28;20273;-66
2023/10/03 02:31:33;;;;;;;23.48;10.10;;;;;;;;;;5082368;28;20024;-66
2023/10/03 02:33:58;;;;;;;19.40;10.32;;;;;;;;;;5074540;28;20040;-66
2023/10/03 02:36:24;;;;;;;20.45;10.82;;;;;;;;;;5074413;28;20032;-66
2023/10/03 02:38:49;;;;;;;17.88;9.77;;;;;;;;;;5075047;28;20434;-66
2023/10/03 02:41:15;;;;;;;23.25;10.20;;;;;;;;;;5073356;28;20025;-66
2023/10/03 02:43:43;;;;;;;19.53;9.77;;;;;;;;;;5073640;28;20103;-66
2023/10/03 02:46:12;;;;;;;17.92;9.50;;;;;;;;;;5072861;28;20324;-66
2023/10/03 02:48:38;;;;;;;18.17;9.55;;;;;;;;;;5080350;28;20171;-66
2023/10/03 02:51:05;;;;;;;18.02;9.65;;;;;;;;;;5090506;28;20020;-66
2023/10/03 02:53:31;;;;;;;17.80;9.32;;;;;;;;;;5091184;28;20095;-66
2023/10/03 02:55:56;;;;;;;19.70;10.27;;;;;;;;;;5088058;28;20444;-66
2023/10/03 02:58:22;;;;;;;19.67;10.07;;;;;;;;;;5080416;28;20050;-66
2023/10/03 03:00:49;;;;;;;18.08;9.48;;;;;;;;;;5077603;28;20384;-65
2023/10/03 03:03:14;;;;;;;20.58;10.50;;;;;;;;;;5073608;28;20347;-66
2023/10/03 03:05:41;;;;;;;22.60;10.63;;;;;;;;;;5075874;28;20024;-65
2023/10/03 03:08:21;;;;;;;17.88;9.73;;;;;;;;;;5073733;28;20033;-64
2023/10/03 03:10:57;;;;;;;22.90;9.73;;;;;;;;;;5081303;28;20489;-65
2023/10/03 03:13:31;;;;;;;16.88;9.75;;;;;;;;;;5070844;28;20021;-65
2023/10/03 03:15:59;;;;;;;;;;;;;;;;;;5075614;28;20021;-65
2023/10/03 03:18:25;;;;;;;18.05;9.45;;;;;;;;;;5076185;28;19908;-66
2023/10/03 03:20:57;;;;;;;18.23;9.18;;;;;;;;;;5080347;28;20062;-65
2023/10/03 03:23:24;;;;;;;21.50;10.25;;;;;;;;;;5076437;28;20032;-65
2023/10/03 03:26:02;;;;;;;15.65;9.10;;;;;;;;;;5078635;28;20127;-65
2023/10/03 03:28:28;;;;;;;20.65;10.05;;;;;;;;;;5080504;28;20390;-65
2023/10/03 03:30:57;;;;;;;18.30;8.23;;;;;;;;;;5076850;28;20016;-66
2023/10/03 03:33:27;;;;;;;15.90;9.10;;;;;;;;;;5078795;28;20020;-66
2023/10/03 03:35:52;;;;;;;14.77;9.00;;;;;;;;;;5075036;28;20391;-66
2023/10/03 03:38:18;;;;;;;15.95;9.20;;;;;;;;;;5078428;28;20024;-66
2023/10/03 03:40:49;;;;;;;17.52;9.63;;;;;;;;;;5075109;28;20112;-66
2023/10/03 03:43:17;;;;;;;15.60;9.45;;;;;;;;;;5079009;28;20020;-66
2023/10/03 03:45:43;;;;;;;15.65;8.55;;;;;;;;;;5074830;28;20494;-66
2023/10/03 03:48:09;;;;;;;20.02;10.10;;;;;;;;;;5079615;28;20032;-66
2023/10/03 03:50:35;;;;;;;17.48;9.25;;;;;;;;;;5078473;28;20028;-66
2023/10/03 03:53:02;;;;;;;18.48;9.75;;;;;;;;;;5084468;28;20036;-66
2023/10/03 03:55:29;;;;;;;19.77;9.05;;;;;;;;;;5094311;28;20057;-66
2023/10/03 03:57:56;;;;;;;17.83;9.52;;;;;;;;;;5063750;28;20025;-66
2023/10/03 04:00:23;;;;;;;19.85;9.77;;;;;;;;;;5026689;28;20811;-66
2023/10/03 04:02:49;;;;;;;17.10;9.63;;;;;;;;;;5051132;28;20024;-66
2023/10/03 04:05:17;;;;;;;17.50;10.20;;;;;;;;;;5048214;28;20024;-66
2023/10/03 04:07:42;;;;;;;17.67;9.10;;;;;;;;;;5051791;28;20028;-67
2023/10/03 04:10:12;;;;;;;18.75;10.07;;;;;;;;;;5043595;28;20900;-67
2023/10/03 04:12:44;;;;;;;17.35;9.45;;;;;;;;;;5043321;28;20120;-67
2023/10/03 04:15:18;;;;;;;16.45;9.27;;;;;;;;;;5048171;28;20035;-66
2023/10/03 04:17:43;;;;;;;;;;;;;;;;;;5039511;28;20901;-67
2023/10/03 04:20:19;;;;;;;17.02;8.82;;;;;;;;;;5039751;28;19908;-66
2023/10/03 04:22:46;;;;;;;14.02;8.68;;;;;;;;;;5048115;28;20032;-67
2023/10/03 04:25:13;;;;;;;16.02;8.57;;;;;;;;;;5048639;28;20340;-67
2023/10/03 04:27:38;;;;;;;15.13;8.07;;;;;;;;;;5049832;28;20059;-67
2023/10/03 04:30:03;;;;;;;14.52;8.27;;;;;;;;;;5050109;28;20057;-67
2023/10/03 04:32:29;;;;;;;14.05;8.45;;;;;;;;;;5068697;28;20032;-67
2023/10/03 04:34:54;;;;;;;13.75;8.10;;;;;;;;;;5081775;28;20395;-67
2023/10/03 04:37:20;;;;;;;15.87;8.07;;;;;;;;;;5084689;28;20081;-66
2023/10/03 04:39:45;;;;;;;13.67;8.10;;;;;;;;;;5063284;28;20298;-66
2023/10/03 04:42:11;;;;;;;13.93;7.60;;;;;;;;;;5083230;28;20262;-66
2023/10/03 04:44:38;;;;;;;15.40;8.05;;;;;;;;;;5081328;28;20111;-66
2023/10/03 04:47:03;;;;;;;15.07;8.60;;;;;;;;;;5083635;28;20413;-67
2023/10/03 04:49:28;;;;;;;13.63;7.60;;;;;;;;;;5087496;28;20066;-66
2023/10/03 04:51:53;;;;;;;18.00;8.27;;;;;;;;;;5086215;28;20096;-66
2023/10/03 04:54:19;;;;;;;12.50;6.90;;;;;;;;;;5082027;28;20320;-66
2023/10/03 04:56:45;;;;;;;12.38;7.03;;;;;;;;;;5092673;28;20024;-66
2023/10/03 04:59:10;;;;;;;11.75;6.70;;;;;;;;;;5089033;28;20037;-66
2023/10/03 05:01:36;;;;;;;12.50;7.47;;;;;;;;;;5080845;28;20092;-66
2023/10/03 05:04:01;;;;;;;11.82;6.95;;;;;;;;;;5091624;28;20052;-66
2023/10/03 05:06:26;;;;;;;13.27;6.63;;;;;;;;;;5092576;28;20032;-66
2023/10/03 05:08:52;;;;;;;13.23;6.73;;;;;;;;;;5086678;28;20032;-66
2023/10/03 05:11:17;;;;;;;17.87;6.93;;;;;;;;;;5080766;28;20296;-66
2023/10/03 05:13:43;;;;;;;13.60;6.80;;;;;;;;;;5084979;28;20272;-66
2023/10/03 05:16:09;;;;;;;14.15;7.18;;;;;;;;;;5080711;28;20332;-66
2023/10/03 05:18:34;;;;;;;10.40;6.75;;;;;;;;;;5083932;28;20024;-66
2023/10/03 05:20:59;;;;;;;11.65;7.15;;;;;;;;;;5080279;28;20470;-66
2023/10/03 05:23:24;;;;;;;12.07;6.63;;;;;;;;;;5084616;28;20324;-66
2023/10/03 05:25:50;;;;;;;9.70;5.85;;;;;;;;;;5079411;28;20413;-66
2023/10/03 05:28:16;;;;;;;10.32;6.05;;;;;;;;;;5083412;28;20028;-66
2023/10/03 05:30:41;;;;;;;8.75;5.60;;;;;;;;;;5078420;28;20090;-65
2023/10/03 05:33:06;;;;;;;10.87;5.97;;;;;;;;;;5086206;28;20458;-66
2023/10/03 05:35:32;;;;;;;12.43;6.20;;;;;;;;;;5085235;28;20671;-65
2023/10/03 05:37:57;;;;;;;10.15;5.53;;;;;;;;;;5079924;28;20340;-66
2023/10/03 05:40:23;;;;;;;8.63;5.07;;;;;;;;;;5090700;28;20016;-66
2023/10/03 05:42:48;;;;;;;8.40;4.85;;;;;;;;;;5090848;28;20636;-66
2023/10/03 05:45:14;;;;;;;10.50;4.78;;;;;;;;;;5064352;28;20077;-65
2023/10/03 05:47:41;;;;;;;7.45;4.57;;;;;;;;;;5033038;28;20962;-66
2023/10/03 05:50:07;;;;;;;9.48;4.95;;;;;;;;;;5045718;28;20035;-66
2023/10/03 05:52:32;;;;;;;10.77;5.13;;;;;;;;;;5041429;28;20024;-66
2023/10/03 05:54:57;;;;;;;9.47;4.17;;;;;;;;;;5051323;28;20023;-66
2023/10/03 05:57:23;;;;;;;9.03;4.50;;;;;;;;;;5048745;28;21330;-66
2023/10/03 05:59:48;;;;;;;8.00;4.32;;;;;;;;;;5051116;28;21136;-66
2023/10/03 06:02:13;;;;;;;8.43;4.20;;;;;;;;;;5049952;28;20843;-66
2023/10/03 06:04:38;;;;;;;11.50;5.03;;;;;;;;;;5048768;28;21135;-66
2023/10/03 06:07:06;;;;;;;8.60;4.50;;;;;;;;;;5035318;28;20270;-66
2023/10/03 06:09:31;;;;;;;7.00;4.40;;;;;;;;;;5047662;28;20039;-66
2023/10/03 06:11:57;;;;;;;9.52;5.10;;;;;;;;;;5073086;28;20474;-66
2023/10/03 06:14:22;;;;;;;10.23;4.95;;;;;;;;;;5076706;28;20103;-66
2023/10/03 06:16:47;;;;;;;7.23;4.57;;;;;;;;;;5080871;28;20471;-66
2023/10/03 06:19:12;;;;;;;9.40;4.87;;;;;;;;;;5077158;28;20032;-66
2023/10/03 06:21:38;;;;;;;8.07;4.97;;;;;;;;;;5072929;28;20617;-66
2023/10/03 06:24:03;;;;;;;6.87;4.37;;;;;;;;;;5073008;28;20150;-66
2023/10/03 06:26:28;;;;;;;7.75;4.43;;;;;;;;;;5071952;28;20107;-66
2023/10/03 06:28:53;;;;;;;8.23;4.93;;;;;;;;;;5071750;28;20464;-66
2023/10/03 06:31:19;;;;;;;8.38;4.38;;;;;;;;;;5072117;28;20771;-66
2023/10/03 06:33:44;;;;;;;7.82;4.82;;;;;;;;;;5072881;28;20021;-67
2023/10/03 06:36:11;;;;;;;8.17;4.90;;;;;;;;;;5054590;28;20036;-66
2023/10/03 06:38:36;;;;;;;8.70;4.90;;;;;;;;;;5072944;28;20266;-66
2023/10/03 06:41:05;;;;;;;9.65;4.68;;;;;;;;;;5070454;28;20468;-66
2023/10/03 06:43:30;;;;;;;7.25;4.80;;;;;;;;;;5079992;28;20012;-66
2023/10/03 06:45:56;;;;;;;10.18;4.90;;;;;;;;;;5083466;28;20033;-67
2023/10/03 06:48:23;;;;;;;7.23;4.90;;;;;;;;;;5079817;28;20066;-66
2023/10/03 06:50:49;;;;;;;9.50;4.65;;;;;;;;;;5079069;28;20361;-66
2023/10/03 06:53:16;;;;;;;8.50;5.13;;;;;;;;;;5088143;28;20091;-66
2023/10/03 06:55:41;;;;;;;8.20;5.20;;;;;;;;;;5087705;28;20024;-67
2023/10/03 06:58:06;;;;;;;9.50;5.80;;;;;;;;;;5082036;28;20021;-67
2023/10/03 07:00:32;;;;;;;11.93;5.30;;;;;;;;;;5083191;28;20035;-66
2023/10/03 07:03:00;;;;;;;10.27;5.65;;;;;;;;;;5079180;28;20281;-67
2023/10/03 07:05:26;;;;;;;8.48;5.32;;;;;;;;;;5082948;28;20036;-67
2023/10/03 07:07:51;;;;;;;11.65;6.00;;;;;;;;;;5074418;28;20066;-67
2023/10/03 07:10:17;;;;;;;8.40;5.57;;;;;;;;;;5081153;28;20157;-67
2023/10/03 07:12:42;;;;;;;8.52;6.07;;;;;;;;;;5089502;28;20031;-66
2023/10/03 07:15:11;;;;;;;11.80;6.07;;;;;;;;;;5075395;28;20042;-67
2023/10/03 07:17:37;;;;;;;8.38;5.82;;;;;;;;;;5075226;28;20400;-67
2023/10/03 07:20:04;;;;;;;11.00;6.25;;;;;;;;;;5043580;28;20029;-67
2023/10/03 07:22:30;;;;;;;9.05;6.30;;;;;;;;;;5046425;28;20028;-67
2023/10/03 07:24:55;;;;;;;9.38;6.28;;;;;;;;;;5047718;28;20060;-68
2023/10/03 07:27:21;;;;;;;17.13;6.65;;;;;;;;;;5048850;28;20822;-67
2023/10/03 07:29:46;;;;;;;13.05;6.40;;;;;;;;;;5043468;28;20804;-67
2023/10/03 07:32:13;;;;;;;10.43;6.20;;;;;;;;;;5049905;28;20016;-66
2023/10/03 07:34:42;;;;;;;8.88;5.95;;;;;;;;;;5050785;28;20035;-66
2023/10/03 07:37:08;;;;;;;8.98;5.75;;;;;;;;;;5050741;28;20028;-67
2023/10/03 07:39:33;;;;;;;10.63;6.25;;;;;;;;;;5055863;28;20020;-67
2023/10/03 07:42:01;;;;;;;7.43;5.13;;;;;;;;;;5072926;28;20025;-66
2023/10/03 07:44:26;;;;;;;10.73;6.13;;;;;;;;;;5091243;28;20354;-66
2023/10/03 07:46:51;;;;;;;9.10;6.53;;;;;;;;;;5081404;28;20479;-67
2023/10/03 07:49:17;;;;;;;9.47;5.70;;;;;;;;;;5090792;28;20036;-67
2023/10/03 07:51:42;;;;;;;9.57;6.13;;;;;;;;;;5084756;28;20614;-67
2023/10/03 07:54:08;;;;;;;9.82;6.45;;;;;;;;;;5083648;28;20387;-67
2023/10/03 07:56:33;;;;;;;9.93;6.68;;;;;;;;;;5092397;28;20070;-66
2023/10/03 07:59:02;;;;;;;8.03;5.63;;;;;;;;;;5092423;28;20107;-66
2023/10/03 08:01:28;;;;;;;9.48;5.20;;;;;;;;;;5092578;28;20372;-66
2023/10/03 08:03:54;;;;;;;11.38;6.10;;;;;;;;;;5089899;28;20108;-67
2023/10/03 08:06:27;;;;;;;10.23;6.45;;;;;;;;;;5083319;28;20375;-67
2023/10/03 08:08:53;;;;;;;11.65;6.50;;;;;;;;;;5071787;28;20467;-66
2023/10/03 08:11:21;;;;;;;10.93;6.53;;;;;;;;;;5073125;28;20032;-66
2023/10/03 08:13:46;;;;;;;8.45;5.63;;;;;;;;;;5075888;28;20031;-66
2023/10/03 08:16:12;;;;;;;8.88;5.45;;;;;;;;;;5091559;28;20032;-66
2023/10/03 08:18:46;;;;;;;7.53;5.22;;;;;;;;;;5076070;28;20394;-66
2023/10/03 08:21:12;;;;;;;7.78;5.00;;;;;;;;;;5066127;28;20031;-67
2023/10/03 08:23:37;;;;;;;8.40;4.72;;;;;;;;;;5075624;28;20360;-67
2023/10/03 08:26:02;;;;;;;9.40;5.03;;;;;;;;;;5098165;28;20023;-67
2023/10/03 08:28:29;;;;;;;7.38;4.70;;;;;;;;;;5097949;28;20028;-66
2023/10/03 08:30:54;;;;;;;9.25;4.75;;;;;;;;;;5073109;28;20487;-66
2023/10/03 08:33:20;;;;;;;6.72;4.40;;;;;;;;;;5086528;28;20020;-66
2023/10/03 08:35:46;;;;;;;6.93;4.72;;;;;;;;;;5069415;28;20820;-67
2023/10/03 08:38:13;;;;;;;10.65;4.90;;;;;;;;;;5070747;28;20115;-67
2023/10/03 08:40:42;;;;;;;7.25;4.10;;;;;;;;;;5080708;28;20024;-66
2023/10/03 08:43:08;;;;;;;11.90;4.70;;;;;;;;;;5070672;28;20395;-66
2023/10/03 08:45:40;;;;;;;8.40;5.03;;;;;;;;;;5083869;28;20062;-66
2023/10/03 08:48:06;;;;;;;11.13;5.30;;;;;;;;;;5083697;28;20036;-66
2023/10/03 08:50:36;;;;;;;7.07;4.60;;;;;;;;;;5080562;28;20089;-66
2023/10/03 08:53:12;;;;;;;6.82;5.07;;;;;;;;;;5089288;28;20028;-66
2023/10/03 08:55:38;;;;;;;7.25;4.78;;;;;;;;;;5090007;28;20028;-66
2023/10/03 08:58:04;;;;;;;10.52;5.03;;;;;;;;;;5087202;28;20031;-66
2023/10/03 09:00:40;;;;;;;7.50;4.80;;;;;;;;;;5078313;28;20587;-65
2023/10/03 09:03:10;;;;;;;6.13;4.47;;;;;;;;;;5079099;28;20027;-66
2023/10/03 09:05:39;;;;;;;7.50;4.65;;;;;;;;;;5089597;28;20451;-66
2023/10/03 09:08:08;;;;;;;7.55;5.32;;;;;;;;;;5091556;28;20032;-66
2023/10/03 09:10:33;;;;;;;9.85;5.05;;;;;;;;;;5054155;28;20066;-64
2023/10/03 09:13:04;;;;;;;8.90;4.82;;;;;;;;;;5048073;28;20028;-67
2023/10/03 09:15:37;;;;;;;10.15;4.95;;;;;;;;;;5043925;28;20028;-64
2023/10/03 09:18:04;;;;;;;6.40;4.57;;;;;;;;;;5049157;28;20230;-66
2023/10/03 09:20:31;;;;;;;9.23;4.65;;;;;;;;;;5048704;28;20029;-66
2023/10/03 09:23:05;;;;;;;8.52;4.57;;;;;;;;;;5048225;28;20031;-66
2023/10/03 09:25:31;;;;;;;6.15;3.88;;;;;;;;;;5047601;28;20077;-67
2023/10/03 09:28:03;;;;;;;7.63;4.40;;;;;;;;;;5046258;28;20020;-68
2023/10/03 09:30:37;;;;;;;7.75;4.22;;;;;;;;;;5045532;28;20082;-66
2023/10/03 09:33:04;;;;;;;9.05;4.40;;;;;;;;;;5048879;28;20028;-67
2023/10/03 09:35:30;;;;;;;7.43;4.75;;;;;;;;;;5040698;28;20020;-67
2023/10/03 09:37:56;;;;;;;10.05;4.57;;;;;;;;;;5042585;28;20078;-66
2023/10/03 09:40:21;;;;;;;6.00;3.25;;;;;;;;;;5050304;28;20034;-65
2023/10/03 09:42:49;;;;;;;5.00;2.43;;;;;;;;;;5078819;28;20042;-65
2023/10/03 09:45:24;;;;;;;8.40;2.40;;;;;;;;;;5078617;28;20298;-65
2023/10/03 09:47:58;;;;;;;7.20;2.60;;;;;;;;;;5080660;28;20099;-66
2023/10/03 09:50:23;;;;;;;6.03;2.97;;;;;;;;;;5082021;28;20064;-67
2023/10/03 09:52:50;;;;;;;4.40;2.75;;;;;;;;;;5078635;28;20063;-66
2023/10/03 09:55:21;;;;;;;4.20;2.90;;;;;;;;;;5083955;28;20028;-66
2023/10/03 09:57:51;;;;;;;5.97;3.30;;;;;;;;;;5073357;28;20391;-65
2023/10/03 10:00:38;;;;;;;5.82;3.38;;;;;;;;;;5089762;28;20032;-64
2023/10/03 10:03:05;;;;;;;6.82;3.08;;;;;;;;;;5074597;28;20475;-65
2023/10/03 10:05:32;;;;;;;6.22;3.33;;;;;;;;;;5080074;28;20027;-66
2023/10/03 10:08:06;;;;;;;5.07;3.10;;;;;;;;;;5083534;28;20062;-65
2023/10/03 10:10:33;;;;;;;4.80;3.17;;;;;;;;;;5081367;28;20083;-66
2023/10/03 10:13:22;;;;;;;7.18;3.60;;;;;;;;;;5081591;28;20444;-65
2023/10/03 10:16:24;;;;;;;7.45;3.58;;;;;;;;;;5079049;28;20032;-65
2023/10/03 10:18:51;;;;;;;4.70;2.90;;;;;;;;;;5080144;28;20037;-66
2023/10/03 10:21:19;;;;;;;6.35;2.83;;;;;;;;;;5072969;28;20028;-65
2023/10/03 10:24:04;;;;;;;7.63;3.03;;;;;;;;;;5084777;28;20042;-66
2023/10/03 10:26:32;;;;;;;7.80;3.53;;;;;;;;;;5073553;28;20036;-66
2023/10/03 10:29:05;;;;;;;6.13;3.00;;;;;;;;;;5087035;28;20024;-66
2023/10/03 10:31:38;;;;;;;9.45;2.55;;;;;;;;;;5081568;28;20085;-66
2023/10/03 10:34:22;;;;;;;5.63;2.83;;;;;;;;;;5087055;28;20099;-65
2023/10/03 10:36:55;;;;;;;4.30;2.70;;;;;;;;;;5088235;28;20052;-66
2023/10/03 10:39:26;;;;;;;4.43;2.33;;;;;;;;;;5087136;28;20170;-66
2023/10/03 10:42:10;;;;;;;4.75;2.35;;;;;;;;;;5086314;28;20027;-67
2023/10/03 10:44:35;;;;;;;5.33;2.47;;;;;;;;;;5087398;28;20024;-66
2023/10/03 10:47:06;;;;;;;4.60;2.50;;;;;;;;;;5088825;28;20028;-66
2023/10/03 10:49:34;;;;;;;4.25;2.40;;;;;;;;;;5089601;28;20102;-66
2023/10/03 10:52:06;;;;;;;6.07;3.22;;;;;;;;;;5085586;28;20028;-66
2023/10/03 10:54:32;;;;;;;3.80;1.90;;;;;;;;;;5086836;28;20028;-65
2023/10/03 10:57:00;;;;;;;2.80;1.40;;;;;;;;;;5090182;28;20086;-66
2023/10/03 10:59:41;;;;;;;4.60;1.58;;;;;;;;;;5089884;28;20475;-66
2023/10/03 11:02:19;;;;;;;4.40;1.65;;;;;;;;;;5091501;28;20043;-66
2023/10/03 11:04:44;;;;;;;3.00;1.13;;;;;;;;;;5084482;28;20051;-66
2023/10/03 11:07:10;;;;;;;2.10;0.98;;;;;;;;;;5076029;28;20032;-65
2023/10/03 11:09:39;;;;;;;4.15;0.98;;;;;;;;;;5086342;28;20024;-66
2023/10/03 11:12:06;;;;;;;3.22;0.77;;;;;;;;;;5075842;28;20031;-65
2023/10/03 11:14:33;;;;;;;2.55;0.60;;;;;;;;;;5090672;28;20055;-66
2023/10/03 11:16:58;;;;;;;2.03;0.60;;;;;;;;;;5093371;28;20039;-66
2023/10/03 11:19:24;;;;;;;1.75;0.55;;;;;;;;;;5066287;28;20017;-66
2023/10/03 11:21:49;;;;;;;1.23;0.40;;;;;;;;;;5072320;28;20024;-66
2023/10/03 11:24:22;;;;;;;1.25;0.40;;;;;;;;;;5079708;28;20029;-66
2023/10/03 11:26:51;;;;;;;1.10;0.43;;;;;;;;;;5091320;28;20020;-67
2023/10/03 11:29:36;;;;;;;1.95;0.50;;;;;;;;;;5089381;28;20070;-66
2023/10/03 11:32:01;;;;;;;1.88;0.60;;;;;;;;;;5086043;28;20036;-66
2023/10/03 11:34:31;;;;;;;5.22;0.47;;;;;;;;;;5089950;28;20103;-66
2023/10/03 11:36:57;;;;;;;5.25;0.65;;;;;;;;;;5089733;28;20031;-66
2023/10/03 11:39:23;;;;;;;1.83;0.50;;;;;;;;;;5082644;28;20071;-65
2023/10/03 11:41:49;;;;;;;1.40;0.50;;;;;;;;;;5089657;28;20371;-66
2023/10/03 11:44:21;;;;;;;1.73;0.57;;;;;;;;;;5080597;28;20028;-65
2023/10/03 11:46:46;;;;;;;1.50;0.65;;;;;;;;;;5089282;28;20059;-67
2023/10/03 11:49:13;;;;;;;2.00;0.70;;;;;;;;;;5090938;28;20530;-66
2023/10/03 11:51:38;;;;;;;1.77;0.65;;;;;;;;;;5079986;28;20073;-66
2023/10/03 11:54:08;;;;;;;1.60;0.68;;;;;;;;;;5085012;28;20036;-66
2023/10/03 11:56:43;;;;;;;1.95;0.80;;;;;;;;;;5093114;28;20020;-65
2023/10/03 11:59:08;;;;;;;2.05;0.80;;;;;;;;;;5081473;28;20024;-66
2023/10/03 12:01:35;;;;;;;3.05;0.85;;;;;;;;;;5066550;28;20031;-65
2023/10/03 12:04:00;;;;;;;1.95;0.95;;;;;;;;;;5088461;28;20382;-66
2023/10/03 12:06:25;;;;;;;2.90;0.90;;;;;;;;;;5089137;28;20031;-65
2023/10/03 12:08:51;;;;;;;2.57;0.90;;;;;;;;;;5088280;28;20495;-66
2023/10/03 12:11:16;;;;;;;2.17;0.95;;;;;;;;;;5079768;28;20274;-65
2023/10/03 12:13:41;;;;;;;1.73;0.80;;;;;;;;;;5090402;28;20024;-65
2023/10/03 12:16:06;;;;;;;2.83;1.00;;;;;;;;;;5083629;28;20024;-65
2023/10/03 12:18:32;;;;;;;4.10;1.20;;;;;;;;;;5089266;28;20070;-65
2023/10/03 12:20:57;;;;;;;4.07;1.17;;;;;;;;;;5089115;28;20266;-66
2023/10/03 12:23:22;;;;;;;4.55;1.35;;;;;;;;;;5083559;28;20418;-65
2023/10/03 12:25:48;;;;;;;3.50;1.37;;;;;;;;;;5090895;28;20510;-65
2023/10/03 12:28:16;;;;;;;3.93;1.30;;;;;;;;;;5091934;28;20277;-65
2023/10/03 12:30:41;;;;;;;3.00;1.00;;;;;;;;;;5090573;28;20829;-67
2023/10/03 12:33:11;;;;;;;3.45;1.30;;;;;;;;;;5091375;28;20142;-66
2023/10/03 12:35:36;;;;;;;3.90;0.90;;;;;;;;;;5090842;28;20024;-66
2023/10/03 12:38:01;;;;;;;4.33;0.90;;;;;;;;;;5091984;28;20115;-65
2023/10/03 12:40:27;;;;;;;5.67;1.27;;;;;;;;;;5089561;28;20298;-66
2023/10/03 12:42:52;;;;;;;3.25;1.10;;;;;;;;;;5090128;28;20278;-66
2023/10/03 12:45:20;;;;;;;2.60;1.17;;;;;;;;;;5085005;28;20208;-66
2023/10/03 12:47:49;;;;;;;2.88;1.17;;;;;;;;;;5084929;28;20024;-65
2023/10/03 12:50:16;;;;;;;3.47;1.48;;;;;;;;;;5083381;28;20027;-66
2023/10/03 12:52:42;;;;;;;3.65;1.10;;;;;;;;;;5079789;28;21550;-65
2023/10/03 12:55:09;;;;;;;3.22;1.40;;;;;;;;;;5091185;28;20031;-65
2023/10/03 12:57:34;;;;;;;3.03;1.25;;;;;;;;;;5074441;28;20552;-66
2023/10/03 12:59:59;;;;;;;2.78;0.90;;;;;;;;;;5075908;28;20036;-66
2023/10/03 13:02:25;;;;;;;4.63;1.33;;;;;;;;;;5076023;28;20068;-65
2023/10/03 13:04:50;;;;;;;3.13;1.13;;;;;;;;;;5086084;28;20039;-66
2023/10/03 13:07:16;;;;;;;3.07;1.00;;;;;;;;;;5077697;28;20082;-67
2023/10/03 13:09:43;;;;;;;3.08;1.17;;;;;;;;;;5084572;28;20266;-66
2023/10/03 13:12:09;;;;;;;3.10;1.23;;;;;;;;;;5080275;28;20021;-66
2023/10/03 13:14:34;;;;;;;2.78;1.15;;;;;;;;;;5087678;28;20376;-66
2023/10/03 13:17:01;;;;;;;3.13;1.30;;;;;;;;;;5091563;28;20023;-64
2023/10/03 13:19:30;;;;;;;4.90;1.25;;;;;;;;;;5090130;28;20285;-67
2023/10/03 13:21:56;;;;;;;3.10;1.17;;;;;;;;;;5084891;28;20020;-65
2023/10/03 13:24:21;;;;;;;2.53;1.13;;;;;;;;;;5081009;28;20107;-66
2023/10/03 13:26:47;;;;;;;4.53;1.23;;;;;;;;;;5078981;28;20099;-65
2023/10/03 13:29:12;;;;;;;3.10;1.20;;;;;;;;;;5086126;28;20040;-64
2023/10/03 13:31:37;;;;;;;3.60;1.35;;;;;;;;;;5075374;28;20088;-65
2023/10/03 13:34:03;;;;;;;3.60;1.40;;;;;;;;;;5085841;28;20023;-67
2023/10/03 13:36:28;;;;;;;4.32;1.30;;;;;;;;;;5083692;28;20020;-67
2023/10/03 13:38:54;;;;;;;3.17;1.30;;;;;;;;;;5089540;28;20031;-65
2023/10/03 13:41:20;;;;;;;3.53;1.40;;;;;;;;;;5086485;28;20031;-66
2023/10/03 13:43:45;;;;;;;3.92;1.40;;;;;;;;;;5086617;28;20031;-66
2023/10/03 13:46:11;;;;;;;3.65;1.27;;;;;;;;;;5085622;28;20128;-66
2023/10/03 13:48:37;;;;;;;3.05;1.52;;;;;;;;;;5086987;28;20137;-66
2023/10/03 13:51:03;;;;;;;3.30;1.25;;;;;;;;;;5078214;28;20024;-67
2023/10/03 13:53:29;;;;;;;3.70;1.10;;;;;;;;;;5083911;28;20048;-66
2023/10/03 13:55:54;;;;;;;3.70;1.60;;;;;;;;;;5089585;28;21206;-65
2023/10/03 13:58:19;;;;;;;2.92;1.25;;;;;;;;;;5090979;28;20040;-66
2023/10/03 14:00:45;;;;;;;4.23;1.43;;;;;;;;;;5080857;28;20040;-64
2023/10/03 14:03:17;;;;;;;3.65;1.40;;;;;;;;;;5078220;28;20282;-66
2023/10/03 14:05:43;;;;;;;4.35;1.38;;;;;;;;;;5077154;28;20032;-66
2023/10/03 14:08:08;;;;;;;8.00;1.80;;;;;;;;;;5081240;28;20085;-65
2023/10/03 14:10:35;;;;;;;4.38;1.33;;;;;;;;;;5078418;28;20035;-66
2023/10/03 14:13:00;;;;;;;4.40;1.90;;;;;;;;;;5088095;28;20020;-66
2023/10/03 14:15:27;;;;;;;3.83;2.03;;;;;;;;;;5088551;28;20024;-66
2023/10/03 14:17:52;;;;;;;3.60;1.48;;;;;;;;;;5085376;28;20364;-67
2023/10/03 14:20:19;;;;;;;4.60;1.52;;;;;;;;;;5087684;28;20193;-64
2023/10/03 14:22:45;;;;;;;3.60;1.50;;;;;;;;;;5083039;28;20552;-64
2023/10/03 14:25:11;;;;;;;4.50;1.73;;;;;;;;;;5088504;28;20028;-66
2023/10/03 14:27:37;;;;;;;5.20;1.65;;;;;;;;;;5087442;28;20292;-67
2023/10/03 14:30:03;;;;;;;3.60;1.63;;;;;;;;;;5080171;28;20029;-67
2023/10/03 14:32:29;;;;;;;5.78;1.88;;;;;;;;;;5087033;28;20572;-65
2023/10/03 14:34:54;;;;;;;4.27;2.33;;;;;;;;;;5087226;28;20106;-65
2023/10/03 14:37:20;;;;;;;5.33;2.10;;;;;;;;;;5081560;28;20629;-65
2023/10/03 14:39:45;;;;;;;4.38;1.60;;;;;;;;;;5085902;28;20647;-67